Time;durP1;ratioP1;P1;durP2;ratioP2;P2;SDS_P1;SDS_P2;PMS_P1;PMS_P2;Temp;Humidity;BMP_temperature;BMP_pressure;BME280_temperature;BME280_humidity;BME280_pressure;Samples;Min_cycle;Max_cycle;Signal;HPM_P1;HPM_P2
2022/08/19 00:01:19;;;;;;;14.32;11.93;;;;;;;;;;17359684;28;20226;-64
2022/08/19 00:09:39;;;;;;;13.18;11.82;;;;;;;;;;17358498;28;20184;-64
2022/08/19 00:18:00;;;;;;;13.13;11.93;;;;;;;;;;17361990;28;20531;-65
2022/08/19 00:26:20;;;;;;;13.35;12.05;;;;;;;;;;17391999;28;20275;-59
2022/08/19 00:34:40;;;;;;;15.80;12.23;;;;;;;;;;17387643;28;20180;-58
2022/08/19 00:43:01;;;;;;;13.90;12.50;;;;;;;;;;17389307;28;20218;-57
2022/08/19 00:51:22;;;;;;;12.95;11.75;;;;;;;;;;17386392;28;20188;-58
2022/08/19 00:59:45;;;;;;;13.95;12.73;;;;;;;;;;17385038;28;20218;-57
2022/08/19 01:08:07;;;;;;;13.30;11.90;;;;;;;;;;17387133;28;20882;-57
2022/08/19 01:16:28;;;;;;;13.75;12.40;;;;;;;;;;17381880;28;20587;-58
2022/08/19 01:24:49;;;;;;;13.35;11.82;;;;;;;;;;17386165;28;20243;-58
2022/08/19 01:33:09;;;;;;;12.80;11.60;;;;;;;;;;17380717;28;20267;-58
2022/08/19 01:41:29;;;;;;;12.85;11.60;;;;;;;;;;17383171;28;20247;-58
2022/08/19 01:49:50;;;;;;;12.75;11.57;;;;;;;;;;17377655;28;20184;-58
2022/08/19 01:58:20;;;;;;;12.43;11.32;;;;;;;;;;17380209;28;20235;-57
2022/08/19 02:06:40;;;;;;;13.65;12.20;;;;;;;;;;17379530;28;20223;-58
2022/08/19 02:15:01;;;;;;;12.80;11.57;;;;;;;;;;17380637;28;20180;-58
2022/08/19 02:23:22;;;;;;;13.07;11.80;;;;;;;;;;17380823;28;20271;-58
2022/08/19 02:31:42;;;;;;;13.02;11.90;;;;;;;;;;17378643;28;20182;-57
2022/08/19 02:40:03;;;;;;;13.07;11.68;;;;;;;;;;17367919;28;20188;-57
2022/08/19 02:48:24;;;;;;;12.77;11.68;;;;;;;;;;17357775;28;20723;-58
2022/08/19 02:56:46;;;;;;;13.00;11.90;;;;;;;;;;17360830;28;20250;-58
2022/08/19 03:05:07;;;;;;;13.63;12.32;;;;;;;;;;17358553;28;20540;-58
2022/08/19 03:13:28;;;;;;;12.57;11.48;;;;;;;;;;17368381;28;20208;-58
2022/08/19 03:21:48;;;;;;;13.15;11.95;;;;;;;;;;17372660;28;20688;-58
2022/08/19 03:30:09;;;;;;;12.90;11.70;;;;;;;;;;17371494;28;20318;-58
2022/08/19 03:38:30;;;;;;;13.20;11.90;;;;;;;;;;17372720;28;20165;-58
2022/08/19 03:46:51;;;;;;;13.10;11.95;;;;;;;;;;17369277;28;20210;-57
2022/08/19 03:55:11;;;;;;;12.88;11.70;;;;;;;;;;17369833;28;20234;-57
2022/08/19 04:03:32;;;;;;;12.77;11.73;;;;;;;;;;17369908;28;20196;-58
2022/08/19 04:11:53;;;;;;;12.43;11.32;;;;;;;;;;17368777;28;20252;-57
2022/08/19 04:20:14;;;;;;;13.43;12.10;;;;;;;;;;17367093;28;20185;-58
2022/08/19 04:28:35;;;;;;;12.10;11.13;;;;;;;;;;17368612;28;20325;-58
2022/08/19 04:36:57;;;;;;;12.52;11.52;;;;;;;;;;17367138;28;20172;-57
2022/08/19 04:45:17;;;;;;;13.82;11.75;;;;;;;;;;17365368;28;20205;-57
2022/08/19 04:53:38;;;;;;;12.40;11.32;;;;;;;;;;17366042;28;20173;-57
2022/08/19 05:01:59;;;;;;;13.10;11.90;;;;;;;;;;17365262;28;20220;-58
2022/08/19 05:10:20;;;;;;;12.73;11.57;;;;;;;;;;17363828;28;20180;-58
2022/08/19 05:27:20;;;;;;;11.15;10.25;;;;;;;;;;17366034;28;20287;-58
2022/08/19 05:35:40;;;;;;;12.27;11.25;;;;;;;;;;17361805;28;20620;-57
2022/08/19 05:44:05;;;;;;;11.52;10.60;;;;;;;;;;17362714;28;20219;-57
2022/08/19 05:52:26;;;;;;;12.15;11.05;;;;;;;;;;17361259;28;20547;-57
2022/08/19 06:00:47;;;;;;;12.88;11.60;;;;;;;;;;17362362;28;20201;-58
2022/08/19 06:09:07;;;;;;;12.80;11.55;;;;;;;;;;17360402;28;20200;-57
2022/08/19 06:17:29;;;;;;;13.07;11.77;;;;;;;;;;17360281;28;20206;-58
2022/08/19 06:25:50;;;;;;;13.35;11.88;;;;;;;;;;17361886;28;20274;-58
2022/08/19 06:34:10;;;;;;;11.80;10.88;;;;;;;;;;17360698;28;20179;-58
2022/08/19 06:42:30;;;;;;;12.63;11.27;;;;;;;;;;17358059;28;20211;-58
2022/08/19 06:50:51;;;;;;;12.35;11.18;;;;;;;;;;17372610;28;20442;-60
2022/08/19 06:59:16;;;;;;;12.55;10.88;;;;;;;;;;17371729;28;20201;-59
2022/08/19 07:07:36;;;;;;;13.88;11.50;;;;;;;;;;17371295;28;20212;-58
2022/08/19 07:15:56;;;;;;;12.93;10.70;;;;;;;;;;17367188;28;20255;-59
2022/08/19 07:24:17;;;;;;;10.65;9.52;;;;;;;;;;17370052;28;20672;-59
2022/08/19 07:32:37;;;;;;;11.07;10.13;;;;;;;;;;17372347;28;20172;-58
2022/08/19 07:40:58;;;;;;;11.23;10.27;;;;;;;;;;17369977;28;20423;-59
2022/08/19 07:49:19;;;;;;;10.70;9.55;;;;;;;;;;17367564;28;20208;-59
2022/08/19 07:57:39;;;;;;;11.05;10.02;;;;;;;;;;17367588;28;20212;-59
2022/08/19 08:14:41;;;;;;;10.82;9.93;;;;;;;;;;17364963;28;20207;-58
2022/08/19 08:31:41;;;;;;;10.32;9.43;;;;;;;;;;17365871;28;20203;-58
2022/08/19 08:40:06;;;;;;;10.57;9.65;;;;;;;;;;17368950;28;20180;-58
2022/08/19 08:48:34;;;;;;;10.85;9.98;;;;;;;;;;17366152;28;20203;-58
2022/08/19 08:56:54;;;;;;;10.98;9.88;;;;;;;;;;17366910;28;20566;-60
2022/08/19 09:05:15;;;;;;;14.32;10.70;;;;;;;;;;17364909;28;20209;-60
2022/08/19 09:13:49;;;;;;;10.80;9.82;;;;;;;;;;17364429;28;20172;-60
2022/08/19 09:22:10;;;;;;;11.82;10.40;;;;;;;;;;17363295;28;20243;-59
2022/08/19 09:30:32;;;;;;;11.38;10.10;;;;;;;;;;17361474;28;20621;-60
2022/08/19 09:38:53;;;;;;;10.68;9.68;;;;;;;;;;17361879;28;20254;-61
2022/08/19 09:47:13;;;;;;;10.52;9.70;;;;;;;;;;17355296;28;20215;-60
2022/08/19 09:55:33;;;;;;;10.65;9.65;;;;;;;;;;17356515;28;20177;-59
2022/08/19 10:03:55;;;;;;;10.93;9.93;;;;;;;;;;17361331;28;20207;-59
2022/08/19 10:12:15;;;;;;;10.23;9.32;;;;;;;;;;17360957;28;20176;-59
2022/08/19 10:20:36;;;;;;;10.43;9.52;;;;;;;;;;17354351;28;20168;-59
2022/08/19 10:28:57;;;;;;;10.68;9.70;;;;;;;;;;17355208;28;20239;-60
2022/08/19 10:37:17;;;;;;;10.80;9.70;;;;;;;;;;17353968;28;20180;-59
2022/08/19 10:45:37;;;;;;;9.77;8.93;;;;;;;;;;17354416;28;20274;-59
2022/08/19 10:53:58;;;;;;;9.88;8.98;;;;;;;;;;17357944;28;20255;-60
2022/08/19 11:02:19;;;;;;;10.23;9.27;;;;;;;;;;17358343;28;20208;-60
2022/08/19 11:10:42;;;;;;;9.52;8.75;;;;;;;;;;17359921;28;20164;-60
2022/08/19 11:19:02;;;;;;;10.07;9.18;;;;;;;;;;17357747;28;20172;-60
2022/08/19 11:27:23;;;;;;;10.30;9.32;;;;;;;;;;17359218;28;20228;-60
2022/08/19 11:35:43;;;;;;;10.20;9.15;;;;;;;;;;17364181;28;20180;-62
2022/08/19 11:44:04;;;;;;;9.80;9.00;;;;;;;;;;17362137;28;20216;-61
2022/08/19 11:52:25;;;;;;;9.43;8.57;;;;;;;;;;17364113;28;20225;-60
2022/08/19 12:00:45;;;;;;;9.50;8.70;;;;;;;;;;17437920;28;20286;-60
2022/08/19 12:09:08;;;;;;;10.20;8.85;;;;;;;;;;17436598;28;20204;-59
2022/08/19 12:17:30;;;;;;;9.63;8.82;;;;;;;;;;17437241;28;20224;-62
2022/08/19 12:25:51;;;;;;;9.48;8.68;;;;;;;;;;17436535;28;20230;-60
2022/08/19 12:34:11;;;;;;;9.07;8.27;;;;;;;;;;17434948;28;20168;-61
2022/08/19 12:42:32;;;;;;;9.15;8.45;;;;;;;;;;17433306;28;20273;-61
2022/08/19 12:50:52;;;;;;;9.02;8.18;;;;;;;;;;17423525;28;20689;-63
2022/08/19 12:59:13;;;;;;;9.60;8.80;;;;;;;;;;17427949;28;20191;-61
2022/08/19 13:07:34;;;;;;;9.20;8.40;;;;;;;;;;17430632;28;20362;-61
2022/08/19 13:16:01;;;;;;;10.73;8.70;;;;;;;;;;17431468;28;20167;-60
2022/08/19 13:24:21;;;;;;;9.38;7.70;;;;;;;;;;17429857;28;20683;-61
2022/08/19 13:41:20;;;;;;;7.40;6.82;;;;;;;;;;17426096;28;20198;-59
2022/08/19 13:49:41;;;;;;;7.43;6.72;;;;;;;;;;17423694;28;20212;-59
2022/08/19 13:58:02;;;;;;;8.00;7.40;;;;;;;;;;17426603;28;20203;-58
2022/08/19 14:06:22;;;;;;;7.57;7.05;;;;;;;;;;17429671;28;20204;-58
2022/08/19 14:14:43;;;;;;;6.97;6.35;;;;;;;;;;17431095;28;20539;-58
2022/08/19 14:23:05;;;;;;;7.72;7.03;;;;;;;;;;17430814;28;20224;-58
2022/08/19 14:31:25;;;;;;;6.97;6.38;;;;;;;;;;17428186;28;20618;-58
2022/08/19 14:39:46;;;;;;;7.35;6.75;;;;;;;;;;17428625;28;20188;-59
2022/08/19 14:48:07;;;;;;;7.20;6.70;;;;;;;;;;17428112;28;20667;-60
2022/08/19 14:56:28;;;;;;;7.53;6.93;;;;;;;;;;17428171;28;20246;-60
2022/08/19 15:04:50;;;;;;;7.85;7.05;;;;;;;;;;17429196;28;20261;-60
2022/08/19 15:13:10;;;;;;;7.15;6.50;;;;;;;;;;17441269;28;20267;-60
2022/08/19 15:21:30;;;;;;;7.18;6.50;;;;;;;;;;17439000;28;20235;-60
2022/08/19 15:29:51;;;;;;;7.43;6.82;;;;;;;;;;17437634;28;20624;-59
2022/08/19 15:38:12;;;;;;;6.97;6.47;;;;;;;;;;17438892;28;20168;-59
2022/08/19 15:46:33;;;;;;;7.85;7.20;;;;;;;;;;17438085;28;20200;-59
2022/08/19 15:54:53;;;;;;;7.82;7.18;;;;;;;;;;17437246;28;20643;-60
2022/08/19 16:11:53;;;;;;;7.75;7.10;;;;;;;;;;17436084;28;20211;-59
2022/08/19 16:20:15;;;;;;;7.55;6.90;;;;;;;;;;17435348;28;20180;-59
2022/08/19 16:28:36;;;;;;;7.30;6.80;;;;;;;;;;17436822;28;20227;-59
2022/08/19 16:36:56;;;;;;;7.85;7.05;;;;;;;;;;17435770;28;20164;-59
2022/08/19 16:45:18;;;;;;;7.43;6.70;;;;;;;;;;17428096;28;20208;-60
2022/08/19 16:53:39;;;;;;;7.80;7.10;;;;;;;;;;17428635;28;20199;-60
2022/08/19 17:02:00;;;;;;;8.25;7.45;;;;;;;;;;17429785;28;20666;-60
2022/08/19 17:10:20;;;;;;;9.02;7.80;;;;;;;;;;17429424;28;20183;-60
2022/08/19 17:18:40;;;;;;;8.30;7.50;;;;;;;;;;17433222;28;20530;-59
2022/08/19 17:27:01;;;;;;;9.40;8.20;;;;;;;;;;17432312;28;20227;-59
2022/08/19 17:35:21;;;;;;;8.07;7.30;;;;;;;;;;17431039;28;20167;-59
2022/08/19 17:43:42;;;;;;;8.38;7.10;;;;;;;;;;17430156;28;20299;-59
2022/08/19 17:52:02;;;;;;;8.40;7.40;;;;;;;;;;17430997;28;20164;-59
2022/08/19 18:00:22;;;;;;;8.95;8.00;;;;;;;;;;17431292;28;20199;-58
2022/08/19 18:08:45;;;;;;;9.77;8.13;;;;;;;;;;17429650;28;20195;-59
2022/08/19 18:17:08;;;;;;;10.13;7.85;;;;;;;;;;17429303;28;20194;-59
2022/08/19 18:25:28;;;;;;;10.60;7.85;;;;;;;;;;17429669;28;20682;-59
2022/08/19 18:33:52;;;;;;;8.50;7.63;;;;;;;;;;17428518;28;20171;-59
2022/08/19 18:50:52;;;;;;;9.32;7.75;;;;;;;;;;17440597;28;20643;-60
2022/08/19 18:59:13;;;;;;;8.48;7.65;;;;;;;;;;17441622;28;20204;-59
2022/08/19 19:07:33;;;;;;;9.00;7.35;;;;;;;;;;17440082;28;20204;-59
2022/08/19 19:15:54;;;;;;;7.63;6.90;;;;;;;;;;17441959;28;20176;-59
2022/08/19 19:24:21;;;;;;;8.05;7.28;;;;;;;;;;17438114;28;20231;-61
2022/08/19 19:32:42;;;;;;;8.60;7.40;;;;;;;;;;17434574;28;20164;-62
2022/08/19 19:41:03;;;;;;;7.85;7.13;;;;;;;;;;17433469;28;20176;-61
2022/08/19 19:49:23;;;;;;;7.78;6.90;;;;;;;;;;17433566;28;20290;-61
2022/08/19 19:57:44;;;;;;;7.28;6.63;;;;;;;;;;17432408;28;20257;-60
2022/08/19 20:06:06;;;;;;;10.00;7.10;;;;;;;;;;17432918;28;20291;-59
2022/08/19 20:14:30;;;;;;;7.00;6.32;;;;;;;;;;17434855;28;20183;-59
2022/08/19 20:22:50;;;;;;;7.47;6.88;;;;;;;;;;17434360;28;20292;-61
2022/08/19 20:31:10;;;;;;;10.13;7.18;;;;;;;;;;17432405;28;20195;-60
2022/08/19 20:39:31;;;;;;;7.20;6.50;;;;;;;;;;17434621;28;20183;-59
2022/08/19 20:47:51;;;;;;;7.20;6.60;;;;;;;;;;17434218;28;20203;-60
2022/08/19 20:56:11;;;;;;;7.88;7.18;;;;;;;;;;17434010;28;20183;-59
2022/08/19 21:04:32;;;;;;;9.70;7.20;;;;;;;;;;17432180;28;20204;-61
2022/08/19 21:12:53;;;;;;;6.97;6.38;;;;;;;;;;17426443;28;20237;-60
2022/08/19 21:21:14;;;;;;;11.77;7.20;;;;;;;;;;17425813;28;20953;-59
2022/08/19 21:29:36;;;;;;;8.65;7.10;;;;;;;;;;17426093;28;20349;-59
2022/08/19 21:37:56;;;;;;;7.40;6.80;;;;;;;;;;17426355;28;20546;-62
2022/08/19 21:46:17;;;;;;;7.20;6.43;;;;;;;;;;18492907;22;20258;-58
2022/08/19 21:54:37;;;;;;;6.88;6.18;;;;;;;;;;17360021;28;20651;-57
2022/08/19 22:02:58;;;;;;;6.88;6.30;;;;;;;;;;17359603;28;20219;-59
2022/08/19 22:11:18;;;;;;;8.43;6.28;;;;;;;;;;17352411;28;20184;-58
2022/08/19 22:19:38;;;;;;;7.40;6.68;;;;;;;;;;17320126;28;20615;-58
2022/08/19 22:27:59;;;;;;;7.00;6.40;;;;;;;;;;17330780;28;20258;-58
2022/08/19 22:36:21;;;;;;;8.52;6.78;;;;;;;;;;17314205;28;20212;-58
2022/08/19 22:44:41;;;;;;;7.53;6.80;;;;;;;;;;17297978;28;20318;-58
2022/08/19 22:53:02;;;;;;;9.05;6.90;;;;;;;;;;17354103;28;20238;-58
2022/08/19 23:01:23;;;;;;;11.30;7.20;;;;;;;;;;17349641;28;20259;-60
2022/08/19 23:09:44;;;;;;;8.82;6.63;;;;;;;;;;17358463;28;20199;-56
2022/08/19 23:18:04;;;;;;;6.97;6.25;;;;;;;;;;17422894;28;20191;-57
2022/08/19 23:26:24;;;;;;;8.15;7.35;;;;;;;;;;17425860;28;20282;-59
2022/08/19 23:34:45;;;;;;;8.07;7.20;;;;;;;;;;17434841;28;20176;-57
2022/08/19 23:43:06;;;;;;;8.43;7.10;;;;;;;;;;17435693;28;20624;-58
2022/08/19 23:51:26;;;;;;;7.40;6.70;;;;;;;;;;17435446;28;20183;-58
2022/08/19 23:59:46;;;;;;;7.28;6.57;;;;;;;;;;17431805;28;20180;-58
